Terminal Aerodrome Forecast
Issued by NWS Cleveland, OH

Home | Current Version | Previous Version | Text Only | Print | Product List | Glossary Off
Versions: 1 2 3 4 5 6 7 8 9 10 11 12 13 14 15 16 17 18 19 20 21 22 23 24 25 26

000
FTUS41 KCLE 172320
TAFCLE
TAF
KCLE 172320Z 1800/1906 02012KT P6SM BKN250
     FM180400 04008KT P6SM OVC200
     FM181200 06014G22KT P6SM OVC120
     FM181800 08020G30KT P6SM OVC040=

USA.gov is the U.S. government's official web portal to all federal, state and local government web resources and services.